createdAt,value
2019-02-11T00:02:27.882Z,1.37
2019-02-11T00:04:55.095Z,1.27
2019-02-11T00:07:22.563Z,1.30
2019-02-11T00:09:49.862Z,1.25
2019-02-11T00:12:17.087Z,0.80
2019-02-11T00:14:44.270Z,1.57
2019-02-11T00:17:12.471Z,1.07
2019-02-11T00:19:39.642Z,1.70
2019-02-11T00:22:06.974Z,1.42
2019-02-11T00:24:34.169Z,1.52
2019-02-11T00:27:01.372Z,0.85
2019-02-11T00:29:28.587Z,0.70
2019-02-11T00:31:55.794Z,1.50
2019-02-11T00:34:22.994Z,1.60
2019-02-11T00:36:50.205Z,1.35
2019-02-11T00:39:17.387Z,1.30
2019-02-11T00:41:44.726Z,1.25
2019-02-11T00:44:12.450Z,1.17
2019-02-11T00:46:39.856Z,1.37
2019-02-11T00:49:07.275Z,1.42
2019-02-11T00:51:34.651Z,1.25
2019-02-11T00:54:01.808Z,1.87
2019-02-11T00:56:29.031Z,1.70
2019-02-11T00:58:56.236Z,3.05
2019-02-11T01:01:23.679Z,1.62
2019-02-11T01:03:51.115Z,0.93
2019-02-11T01:06:18.571Z,1.57
2019-02-11T01:08:45.996Z,2.23
2019-02-11T01:11:13.280Z,0.87
2019-02-11T01:13:41.586Z,0.72
2019-02-11T01:16:08.978Z,1.12
2019-02-11T01:18:36.392Z,1.45
2019-02-11T01:21:04.763Z,0.88
2019-02-11T01:23:33.795Z,1.45
2019-02-11T01:26:00.967Z,1.77
2019-02-11T01:28:28.239Z,1.12
2019-02-11T01:30:55.416Z,0.98
2019-02-11T01:33:22.850Z,0.80
2019-02-11T01:35:50.050Z,0.87
2019-02-11T01:38:17.263Z,0.78
2019-02-11T01:40:44.575Z,1.60
2019-02-11T01:43:11.862Z,1.05
2019-02-11T01:45:39.256Z,0.85
2019-02-11T01:48:06.590Z,1.10
2019-02-11T01:50:33.868Z,1.00
2019-02-11T01:53:01.225Z,1.07
2019-02-11T01:55:28.418Z,1.50
2019-02-11T01:57:55.631Z,1.32
2019-02-11T02:00:22.978Z,1.10
2019-02-11T02:02:51.575Z,1.00
2019-02-11T02:05:18.833Z,1.47
2019-02-11T02:07:46.118Z,1.03
2019-02-11T02:10:14.699Z,1.22
2019-02-11T02:12:41.910Z,1.37
2019-02-11T02:15:09.928Z,1.37
2019-02-11T02:17:37.134Z,0.80
2019-02-11T02:20:05.342Z,0.70
2019-02-11T02:22:32.806Z,1.15
2019-02-11T02:25:00.038Z,0.70
2019-02-11T02:27:27.231Z,0.95
2019-02-11T02:29:54.590Z,0.68
2019-02-11T02:32:21.994Z,1.63
2019-02-11T02:34:49.411Z,0.93
2019-02-11T02:37:16.610Z,0.80
2019-02-11T02:39:44.091Z,0.95
2019-02-11T02:42:11.424Z,1.05
2019-02-11T02:44:38.991Z,0.80
2019-02-11T02:47:06.277Z,0.85
2019-02-11T02:49:33.627Z,0.53
2019-02-11T02:52:01.032Z,1.05
2019-02-11T02:54:28.224Z,1.35
2019-02-11T02:56:55.405Z,0.80
2019-02-11T02:59:22.499Z,0.62
2019-02-11T03:01:49.727Z,0.60
2019-02-11T03:04:17.139Z,0.35
2019-02-11T03:06:44.338Z,0.40
2019-02-11T03:09:11.530Z,1.20
2019-02-11T03:11:38.839Z,0.75
2019-02-11T03:14:06.915Z,0.50
2019-02-11T03:16:34.207Z,0.45
2019-02-11T03:19:01.504Z,0.95
2019-02-11T03:21:28.951Z,0.60
2019-02-11T03:23:56.271Z,0.37
2019-02-11T03:26:23.491Z,0.40
2019-02-11T03:28:50.658Z,0.50
2019-02-11T03:31:17.980Z,1.55
2019-02-11T03:33:45.285Z,0.50
2019-02-11T03:36:12.460Z,0.72
2019-02-11T03:38:39.818Z,0.62
2019-02-11T03:41:07.118Z,1.50
2019-02-11T03:43:34.398Z,1.00
2019-02-11T03:46:01.615Z,0.93
2019-02-11T03:48:28.871Z,0.80
2019-02-11T03:50:55.963Z,1.07
2019-02-11T03:53:23.334Z,1.00
2019-02-11T03:55:50.530Z,0.95
2019-02-11T03:58:17.702Z,0.80
2019-02-11T04:00:44.925Z,1.55
2019-02-11T04:03:12.076Z,1.13
2019-02-11T04:05:39.640Z,0.78
2019-02-11T04:08:06.951Z,0.47
2019-02-11T04:10:34.251Z,1.30
2019-02-11T04:13:01.502Z,1.95
2019-02-11T04:15:29.267Z,1.70
2019-02-11T04:17:56.539Z,1.10
2019-02-11T04:20:23.942Z,1.40
2019-02-11T04:22:51.273Z,1.35
2019-02-11T04:25:18.443Z,0.65
2019-02-11T04:27:45.650Z,2.37
2019-02-11T04:30:12.852Z,1.50
2019-02-11T04:32:40.139Z,1.07
2019-02-11T04:35:07.206Z,1.75
2019-02-11T04:37:34.399Z,1.92
2019-02-11T04:40:01.563Z,1.37
2019-02-11T04:42:28.631Z,2.50
2019-02-11T04:44:55.794Z,1.10
2019-02-11T04:47:22.882Z,1.50
2019-02-11T04:49:49.949Z,1.42
2019-02-11T04:52:17.119Z,2.42
2019-02-11T04:54:45.278Z,1.77
2019-02-11T04:57:12.576Z,3.35
2019-02-11T04:59:39.827Z,2.62
2019-02-11T05:02:07.160Z,3.15
2019-02-11T05:04:34.234Z,4.37
2019-02-11T05:07:01.325Z,3.37
2019-02-11T05:09:28.517Z,3.75
2019-02-11T05:11:55.948Z,8.60
2019-02-11T05:14:23.213Z,6.03
2019-02-11T05:16:50.595Z,3.60
2019-02-11T05:19:17.688Z,4.55
2019-02-11T05:21:47.719Z,5.65
2019-02-11T05:24:15.240Z,6.50
2019-02-11T05:26:42.637Z,5.62
2019-02-11T05:29:09.858Z,5.90
2019-02-11T05:31:37.282Z,7.33
2019-02-11T05:34:04.364Z,8.50
2019-02-11T05:36:31.487Z,6.03
2019-02-11T05:38:58.884Z,6.95
2019-02-11T05:41:26.289Z,7.50
2019-02-11T05:43:53.491Z,6.62
2019-02-11T05:46:20.734Z,6.10
2019-02-11T05:48:47.814Z,6.47
2019-02-11T05:51:15.076Z,9.15
2019-02-11T05:53:42.155Z,6.85
2019-02-11T05:56:09.199Z,5.37
2019-02-11T05:58:36.290Z,7.05
2019-02-11T06:01:03.448Z,7.15
2019-02-11T06:03:30.760Z,5.87
2019-02-11T06:05:57.940Z,5.40
2019-02-11T06:08:25.139Z,10.25
2019-02-11T06:10:52.341Z,7.90
2019-02-11T06:13:19.637Z,5.67
2019-02-11T06:15:47.006Z,5.83
2019-02-11T06:18:14.103Z,5.72
2019-02-11T06:20:41.154Z,6.07
2019-02-11T06:23:08.384Z,7.78
2019-02-11T06:25:35.585Z,8.45
2019-02-11T06:28:02.775Z,6.12
2019-02-11T06:30:29.980Z,7.72
2019-02-11T06:32:57.146Z,6.83
2019-02-11T06:35:24.223Z,7.55
2019-02-11T06:37:51.392Z,6.78
2019-02-11T06:40:18.478Z,8.00
2019-02-11T06:42:45.657Z,9.03
2019-02-11T06:45:13.567Z,8.78
2019-02-11T06:47:40.948Z,7.55
2019-02-11T06:50:08.979Z,9.23
2019-02-11T06:52:36.171Z,8.00
2019-02-11T06:55:04.240Z,9.33
2019-02-11T06:57:31.295Z,7.00
2019-02-11T06:59:58.604Z,9.28
2019-02-11T07:02:25.685Z,9.18
2019-02-11T07:04:52.804Z,7.70
2019-02-11T07:07:20.206Z,7.20
2019-02-11T07:09:47.339Z,8.45
2019-02-11T07:12:14.403Z,8.65
2019-02-11T07:14:41.507Z,7.67
2019-02-11T07:17:08.666Z,8.13
2019-02-11T07:19:35.760Z,10.97
2019-02-11T07:22:02.942Z,7.42
2019-02-11T07:24:30.369Z,8.68
2019-02-11T07:26:57.612Z,8.00
2019-02-11T07:29:24.779Z,10.08
2019-02-11T07:31:51.870Z,9.70
2019-02-11T07:34:19.072Z,9.13
2019-02-11T07:36:46.156Z,8.93
2019-02-11T07:39:13.335Z,9.73
2019-02-11T07:42:00.073Z,10.05
2019-02-11T07:44:32.982Z,11.10
2019-02-11T07:47:01.747Z,9.05
2019-02-11T07:49:28.819Z,9.93
2019-02-11T07:51:55.902Z,7.47
2019-02-11T07:54:23.171Z,11.88
2019-02-11T07:56:50.271Z,11.25
2019-02-11T07:59:17.539Z,10.23
2019-02-11T08:01:44.840Z,7.35
2019-02-11T08:04:13.135Z,8.03
2019-02-11T08:06:40.366Z,12.07
2019-02-11T08:09:10.539Z,13.45
2019-02-11T08:11:37.618Z,8.30
2019-02-11T08:14:04.702Z,11.22
2019-02-11T08:16:31.847Z,12.30
2019-02-11T08:18:59.124Z,9.35
2019-02-11T08:21:26.458Z,11.95
2019-02-11T08:23:53.520Z,11.57
2019-02-11T08:26:20.711Z,11.10
2019-02-11T08:28:51.492Z,11.33
2019-02-11T08:31:18.631Z,11.97
2019-02-11T08:33:46.709Z,11.97
2019-02-11T08:36:13.900Z,12.40
2019-02-11T08:38:41.070Z,8.77
2019-02-11T08:41:08.255Z,9.18
2019-02-11T08:43:35.415Z,10.75
2019-02-11T08:46:02.499Z,11.88
2019-02-11T08:48:29.572Z,12.00
2019-02-11T08:50:56.804Z,11.40
2019-02-11T08:53:23.850Z,9.63
2019-02-11T08:55:51.171Z,12.20
2019-02-11T08:58:19.318Z,13.78
2019-02-11T09:00:46.509Z,14.20
2019-02-11T09:03:14.662Z,9.18
2019-02-11T09:05:41.930Z,15.58
2019-02-11T09:08:09.029Z,14.28
2019-02-11T09:10:36.215Z,11.88
2019-02-11T09:13:03.323Z,9.50
2019-02-11T09:15:30.551Z,7.13
2019-02-11T09:17:57.632Z,12.25
2019-02-11T09:20:24.703Z,10.88
2019-02-11T09:22:51.918Z,8.93
2019-02-11T09:25:19.311Z,9.30
2019-02-11T09:27:46.739Z,9.48
2019-02-11T09:30:14.441Z,11.12
2019-02-11T09:32:41.746Z,10.55
2019-02-11T09:35:09.055Z,10.50
2019-02-11T09:37:36.746Z,20.77
2019-02-11T09:40:05.284Z,11.18
2019-02-11T09:42:32.618Z,10.53
2019-02-11T09:44:59.883Z,12.98
2019-02-11T09:47:27.132Z,10.25
2019-02-11T09:50:11.881Z,12.05
2019-02-11T09:52:39.108Z,10.88
2019-02-11T09:55:11.237Z,10.18
2019-02-11T09:57:38.335Z,7.60
2019-02-11T10:00:05.779Z,10.77
2019-02-11T10:02:33.061Z,7.77
2019-02-11T10:05:00.380Z,10.68
2019-02-11T10:07:27.587Z,7.87
2019-02-11T10:09:55.756Z,11.53
2019-02-11T10:12:23.179Z,8.15
2019-02-11T10:14:50.228Z,9.10
2019-02-11T10:17:18.666Z,6.90
2019-02-11T10:19:45.931Z,7.95
2019-02-11T10:22:13.227Z,8.13
2019-02-11T10:24:40.486Z,7.30
2019-02-11T10:27:07.691Z,10.50
2019-02-11T10:29:34.863Z,8.03
2019-02-11T10:32:01.955Z,9.28
2019-02-11T10:34:31.091Z,9.13
2019-02-11T10:36:58.327Z,8.03
2019-02-11T10:39:25.419Z,10.65
2019-02-11T10:41:52.702Z,8.13
2019-02-11T10:44:19.799Z,11.05
2019-02-11T10:46:47.102Z,8.68
2019-02-11T10:49:14.411Z,7.05
2019-02-11T10:51:42.875Z,10.75
2019-02-11T10:54:10.171Z,7.72
2019-02-11T10:56:37.540Z,10.40
2019-02-11T10:59:04.618Z,11.40
2019-02-11T11:01:31.919Z,11.48
2019-02-11T11:03:59.163Z,9.68
2019-02-11T11:06:27.460Z,11.03
2019-02-11T11:08:54.669Z,9.53
2019-02-11T11:11:22.114Z,12.30
2019-02-11T11:13:49.435Z,8.90
2019-02-11T11:16:16.811Z,10.53
2019-02-11T11:18:44.172Z,12.35
2019-02-11T11:21:12.267Z,9.58
2019-02-11T11:23:39.478Z,10.23
2019-02-11T11:26:06.871Z,9.10
2019-02-11T11:28:34.239Z,8.73
2019-02-11T11:31:01.386Z,8.33
2019-02-11T11:33:28.679Z,9.20
2019-02-11T11:35:55.884Z,10.05
2019-02-11T11:38:23.147Z,7.92
2019-02-11T11:40:50.474Z,8.05
2019-02-11T11:43:17.792Z,8.35
2019-02-11T11:45:44.894Z,7.53
2019-02-11T11:48:12.171Z,10.68
2019-02-11T11:50:39.462Z,11.48
2019-02-11T11:53:06.842Z,7.90
2019-02-11T11:55:34.135Z,8.50
2019-02-11T11:58:01.431Z,12.28
2019-02-11T12:00:28.655Z,7.12
2019-02-11T12:03:02.659Z,11.20
2019-02-11T12:05:26.267Z,7.37
2019-02-11T12:07:53.528Z,9.23
2019-02-11T12:10:21.053Z,7.05
2019-02-11T12:12:48.458Z,8.88
2019-02-11T12:15:17.663Z,6.28
2019-02-11T12:17:45.810Z,7.25
2019-02-11T12:20:13.165Z,7.92
2019-02-11T12:22:40.345Z,7.55
2019-02-11T12:25:09.526Z,6.55
2019-02-11T12:27:36.807Z,6.97
2019-02-11T12:30:05.725Z,7.62
2019-02-11T12:32:33.077Z,8.07
2019-02-11T12:35:00.504Z,6.80
2019-02-11T12:37:27.754Z,8.70
2019-02-11T12:39:55.126Z,10.65
2019-02-11T12:42:22.325Z,6.08
2019-02-11T12:44:49.629Z,7.00
2019-02-11T12:47:16.900Z,7.93
2019-02-11T12:49:44.106Z,9.35
2019-02-11T12:52:11.269Z,6.28
2019-02-11T12:54:38.600Z,6.72
2019-02-11T12:57:05.887Z,5.63
2019-02-11T12:59:33.073Z,9.48
2019-02-11T13:02:00.267Z,8.05
2019-02-11T13:04:27.426Z,7.97
2019-02-11T13:06:54.935Z,5.03
2019-02-11T13:09:22.316Z,6.62
2019-02-11T13:11:49.530Z,5.78
2019-02-11T13:14:17.054Z,6.47
2019-02-11T13:16:44.520Z,9.08
2019-02-11T13:19:11.908Z,7.27
2019-02-11T13:21:39.386Z,6.53
2019-02-11T13:24:06.801Z,4.12
2019-02-11T13:26:35.325Z,6.17
2019-02-11T13:29:02.811Z,6.35
2019-02-11T13:31:30.362Z,5.85
2019-02-11T13:33:57.677Z,7.90
2019-02-11T13:36:25.101Z,10.25
2019-02-11T13:38:52.486Z,8.70
2019-02-11T13:41:19.779Z,8.08
2019-02-11T13:43:49.777Z,6.15
2019-02-11T13:46:16.967Z,8.38
2019-02-11T13:48:47.492Z,7.00
2019-02-11T13:51:14.725Z,6.42
2019-02-11T13:53:43.903Z,6.65
2019-02-11T13:56:11.430Z,6.17
2019-02-11T13:58:38.669Z,7.30
2019-02-11T14:01:07.152Z,9.18
2019-02-11T14:03:34.546Z,8.00
2019-02-11T14:06:01.912Z,9.23
2019-02-11T14:08:29.148Z,6.70
2019-02-11T14:10:56.629Z,6.65
2019-02-11T14:13:24.040Z,10.00
2019-02-11T14:15:51.335Z,5.00
2019-02-11T14:18:18.991Z,5.67
2019-02-11T14:20:49.435Z,10.20
2019-02-11T14:23:15.519Z,5.07
2019-02-11T14:25:46.576Z,6.45
2019-02-11T14:28:12.157Z,7.03
2019-02-11T14:30:40.679Z,7.30
2019-02-11T14:33:08.743Z,7.08
2019-02-11T14:35:36.132Z,8.05
2019-02-11T14:38:03.862Z,6.00
2019-02-11T14:40:31.918Z,5.25
2019-02-11T14:42:59.793Z,8.25
2019-02-11T14:45:27.435Z,9.88
2019-02-11T14:47:55.422Z,7.60
2019-02-11T14:50:22.778Z,5.85
2019-02-11T14:52:50.425Z,8.15
2019-02-11T14:55:17.988Z,8.98
2019-02-11T14:57:45.475Z,7.05
2019-02-11T15:00:19.048Z,7.55
2019-02-11T15:02:46.291Z,5.60
2019-02-11T15:05:14.610Z,6.45
2019-02-11T15:07:42.246Z,7.70
2019-02-11T15:10:09.506Z,5.13
2019-02-11T15:12:36.904Z,5.58
2019-02-11T15:15:04.471Z,5.70
2019-02-11T15:17:31.776Z,6.30
2019-02-11T15:19:59.236Z,8.85
2019-02-11T15:22:28.085Z,5.60
2019-02-11T15:24:55.750Z,10.08
2019-02-11T15:27:23.167Z,8.80
2019-02-11T15:29:50.595Z,7.50
2019-02-11T15:32:17.820Z,8.80
2019-02-11T15:34:48.531Z,7.50
2019-02-11T15:37:15.952Z,12.85
2019-02-11T15:39:44.260Z,7.10
2019-02-11T15:42:11.565Z,9.23
2019-02-11T15:44:38.899Z,9.50
2019-02-11T15:47:06.334Z,6.62
2019-02-11T15:49:33.743Z,7.08
2019-02-11T15:52:02.268Z,11.00
2019-02-11T15:54:29.609Z,7.37
2019-02-11T15:56:57.110Z,9.20
2019-02-11T15:59:37.090Z,6.65
2019-02-11T16:02:04.368Z,7.33
2019-02-11T16:04:31.541Z,9.35
2019-02-11T16:06:58.947Z,9.15
2019-02-11T16:09:26.422Z,7.75
2019-02-11T16:11:53.772Z,8.20
2019-02-11T16:14:21.282Z,7.50
2019-02-11T16:16:48.393Z,6.70
2019-02-11T16:19:15.915Z,10.00
2019-02-11T16:21:43.132Z,7.83
2019-02-11T16:24:10.227Z,8.25
2019-02-11T16:26:38.006Z,10.45
2019-02-11T16:29:05.355Z,10.85
2019-02-11T16:31:32.750Z,10.50
2019-02-11T16:34:00.293Z,10.13
2019-02-11T16:36:27.420Z,10.68
2019-02-11T16:38:54.971Z,11.38
2019-02-11T16:41:22.427Z,10.18
2019-02-11T16:43:49.809Z,11.53
2019-02-11T16:46:17.162Z,9.25
2019-02-11T16:48:44.568Z,8.33
2019-02-11T16:51:11.800Z,10.40
2019-02-11T16:53:39.389Z,8.90
2019-02-11T16:56:06.668Z,8.98
2019-02-11T16:58:34.085Z,8.63
2019-02-11T17:01:01.499Z,9.80
2019-02-11T17:03:28.775Z,7.72
2019-02-11T17:05:56.003Z,7.00
2019-02-11T17:08:23.207Z,7.22
2019-02-11T17:10:50.434Z,9.10
2019-02-11T17:13:17.824Z,10.60
2019-02-11T17:15:45.272Z,9.15
2019-02-11T17:18:15.609Z,8.70
2019-02-11T17:20:43.171Z,7.60
2019-02-11T17:23:10.567Z,8.80
2019-02-11T17:25:37.688Z,9.33
2019-02-11T17:28:04.769Z,10.15
2019-02-11T17:30:32.489Z,10.78
2019-02-11T17:32:59.926Z,9.97
2019-02-11T17:35:27.216Z,8.63
2019-02-11T17:37:54.371Z,8.95
2019-02-11T17:40:21.839Z,8.45
2019-02-11T17:42:49.147Z,8.70
2019-02-11T17:45:18.823Z,10.18
2019-02-11T17:47:46.060Z,7.03
2019-02-11T17:50:13.414Z,8.35
2019-02-11T17:52:40.835Z,8.30
2019-02-11T17:55:09.173Z,10.75
2019-02-11T17:57:36.462Z,9.48
2019-02-11T18:00:07.407Z,11.75
2019-02-11T18:02:34.583Z,8.90
2019-02-11T18:05:02.010Z,9.20
2019-02-11T18:07:29.577Z,10.68
2019-02-11T18:09:56.879Z,11.03
2019-02-11T18:12:24.190Z,8.83
2019-02-11T18:14:51.479Z,9.28
2019-02-11T18:17:18.858Z,8.20
2019-02-11T18:19:46.069Z,11.53
2019-02-11T18:22:15.339Z,10.05
2019-02-11T18:24:42.666Z,7.65
2019-02-11T18:27:10.075Z,11.45
2019-02-11T18:29:38.459Z,11.33
2019-02-11T18:32:05.667Z,10.03
2019-02-11T18:34:32.987Z,8.68
2019-02-11T18:37:00.209Z,11.25
2019-02-11T18:39:27.495Z,11.97
2019-02-11T18:41:56.609Z,10.23
2019-02-11T18:44:24.128Z,13.30
2019-02-11T18:46:51.446Z,8.53
2019-02-11T18:49:18.969Z,11.18
2019-02-11T18:51:46.498Z,11.10
2019-02-11T18:54:13.679Z,10.25
2019-02-11T18:56:40.993Z,9.35
2019-02-11T18:59:08.094Z,8.63
2019-02-11T19:01:35.299Z,9.93
2019-02-11T19:04:02.603Z,10.23
2019-02-11T19:06:29.736Z,10.80
2019-02-11T19:08:57.054Z,11.10
2019-02-11T19:11:24.375Z,11.45
2019-02-11T19:13:51.914Z,12.35
2019-02-11T19:16:19.198Z,10.15
2019-02-11T19:18:46.315Z,12.18
2019-02-11T19:21:13.663Z,11.05
2019-02-11T19:23:42.819Z,88.95
2019-02-11T19:26:11.095Z,22.70
2019-02-11T19:28:38.518Z,36.17
2019-02-11T19:31:05.832Z,18.62
2019-02-11T19:33:33.157Z,13.38
2019-02-11T19:36:00.516Z,13.60
2019-02-11T19:38:27.751Z,13.70
2019-02-11T19:40:55.007Z,15.50
2019-02-11T19:43:22.359Z,14.03
2019-02-11T19:45:49.751Z,16.05
2019-02-11T19:48:17.064Z,14.33
2019-02-11T19:50:44.527Z,14.03
2019-02-11T19:53:11.846Z,16.50
2019-02-11T19:55:39.063Z,13.28
2019-02-11T19:58:06.262Z,10.88
2019-02-11T20:00:33.632Z,15.37
2019-02-11T20:03:01.042Z,18.02
2019-02-11T20:05:28.157Z,17.48
2019-02-11T20:07:55.581Z,14.53
2019-02-11T20:10:22.996Z,16.32
2019-02-11T20:12:50.100Z,13.98
2019-02-11T20:15:19.312Z,14.25
2019-02-11T20:17:46.701Z,13.75
2019-02-11T20:20:15.974Z,16.87
2019-02-11T20:22:43.465Z,15.25
2019-02-11T20:25:10.724Z,15.00
2019-02-11T20:27:37.912Z,17.20
2019-02-11T20:30:08.544Z,17.07
2019-02-11T20:32:35.839Z,16.33
2019-02-11T20:35:03.584Z,15.50
2019-02-11T20:37:31.899Z,12.03
2019-02-11T20:40:03.537Z,17.07
2019-02-11T20:42:28.201Z,15.50
2019-02-11T20:44:55.507Z,12.75
2019-02-11T20:47:22.815Z,13.45
2019-02-11T20:49:50.174Z,17.10
2019-02-11T20:52:17.351Z,14.27
2019-02-11T20:54:44.697Z,14.20
2019-02-11T20:57:12.118Z,15.98
2019-02-11T20:59:39.437Z,12.85
2019-02-11T21:02:06.810Z,13.53
2019-02-11T21:04:34.099Z,15.20
2019-02-11T21:07:01.331Z,14.65
2019-02-11T21:09:30.491Z,17.82
2019-02-11T21:11:57.682Z,14.50
2019-02-11T21:14:24.865Z,13.20
2019-02-11T21:16:52.226Z,15.10
2019-02-11T21:19:19.579Z,13.88
2019-02-11T21:21:46.958Z,18.25
2019-02-11T21:24:14.307Z,14.87
2019-02-11T21:26:42.659Z,14.05
2019-02-11T21:29:10.127Z,17.48
2019-02-11T21:31:37.429Z,20.25
2019-02-11T21:34:04.551Z,18.17
2019-02-11T21:36:31.677Z,23.50
2019-02-11T21:38:59.175Z,18.02
2019-02-11T21:41:26.396Z,19.05
2019-02-11T21:43:53.696Z,17.87
2019-02-11T21:46:21.133Z,17.73
2019-02-11T21:48:48.520Z,19.53
2019-02-11T21:51:15.863Z,17.85
2019-02-11T21:53:43.147Z,16.40
2019-02-11T21:56:10.486Z,19.77
2019-02-11T21:58:37.666Z,18.77
2019-02-11T22:01:05.060Z,21.27
2019-02-11T22:03:32.358Z,19.57
2019-02-11T22:05:59.668Z,19.53
2019-02-11T22:08:27.224Z,22.07
2019-02-11T22:10:54.734Z,19.30
2019-02-11T22:13:22.055Z,19.65
2019-02-11T22:15:49.603Z,18.40
2019-02-11T22:18:17.092Z,20.17
2019-02-11T22:20:44.642Z,20.97
2019-02-11T22:23:12.065Z,15.93
2019-02-11T22:25:39.247Z,36.30
2019-02-11T22:28:06.753Z,26.68
2019-02-11T22:30:35.102Z,19.93
2019-02-11T22:33:02.459Z,18.00
2019-02-11T22:35:29.804Z,20.27
2019-02-11T22:37:57.135Z,17.05
2019-02-11T22:40:24.403Z,17.57
2019-02-11T22:42:51.723Z,16.57
2019-02-11T22:45:20.227Z,24.40
2019-02-11T22:47:47.637Z,18.02
2019-02-11T22:50:14.820Z,17.00
2019-02-11T22:52:42.143Z,18.12
2019-02-11T22:55:09.443Z,19.05
2019-02-11T22:57:36.800Z,17.00
2019-02-11T23:00:07.042Z,15.45
2019-02-11T23:02:36.305Z,19.30
2019-02-11T23:05:03.989Z,24.18
2019-02-11T23:07:31.215Z,22.52
2019-02-11T23:09:58.515Z,21.35
2019-02-11T23:12:25.944Z,24.40
2019-02-11T23:14:53.242Z,23.55
2019-02-11T23:17:20.596Z,16.48
2019-02-11T23:19:47.999Z,19.60
2019-02-11T23:22:15.343Z,22.22
2019-02-11T23:24:42.863Z,16.85
2019-02-11T23:27:10.167Z,17.60
2019-02-11T23:29:37.559Z,18.80
2019-02-11T23:32:05.041Z,22.32
2019-02-11T23:34:32.505Z,21.02
2019-02-11T23:36:59.789Z,16.97
2019-02-11T23:39:26.991Z,18.73
2019-02-11T23:41:54.394Z,19.43
2019-02-11T23:44:21.715Z,18.17
2019-02-11T23:46:48.905Z,17.20
2019-02-11T23:49:16.453Z,22.52
2019-02-11T23:51:43.807Z,17.05
2019-02-11T23:54:11.276Z,17.57
2019-02-11T23:56:38.491Z,21.62
2019-02-11T23:59:07.007Z,19.52
